This is the latest recevied weather packets stored in our database for station/object W4VCO. If no packets are shown the sender has not sent any weather packets the latest 10 day(s).
| Time | Temp. | Humidity | Pressure | Rain* | Wind** | Luminosity | Snow |
|---|---|---|---|---|---|---|---|
| 1778009112 | 30.56° C | 38% | 1013.2 hPa | 0 mm | - | - | - |
| 1778007912 | 31.67° C | 35% | 1013.5 hPa | 0 mm | - | - | - |
| 1778007014 | 31.67° C | 36% | 1013.7 hPa | 0 mm | - | - | - |
| 1778006713 | 31.67° C | 38% | 1013.6 hPa | 0 mm | - | - | - |
| 1778005817 | 31.11° C | 37% | 1013.8 hPa | 0 mm | - | - | - |
| 1778005512 | 31.11° C | 38% | 1013.9 hPa | 0 mm | - | - | - |
| 1778004912 | 30.56° C | 39% | 1013.9 hPa | 0 mm | - | - | - |
| 1778001314 | 29.44° C | 43% | 1014.9 hPa | 0 mm | - | - | - |
| 1777992911 | 27.22° C | 53% | 1014.9 hPa | 0 mm | - | - | - |
| 1777989014 | 25° C | 65% | 1014.5 hPa | 0 mm | - | - | - |
| 1777988418 | 24.44° C | 68% | 1014.6 hPa | 0 mm | - | - | - |
| 1777987511 | 23.33° C | 73% | 1014.5 hPa | 0 mm | - | - | - |
| 1777985113 | 20.56° C | 87% | 1014.4 hPa | 0 mm | - | - | - |
| 1777983915 | 18.89° C | 94% | 1014.6 hPa | 0 mm | - | - | - |
| 1777983015 | 18.33° C | 95% | 1014.5 hPa | 0 mm | - | - | - |
| 1777982114 | 17.78° C | 95% | 1014.4 hPa | 0 mm | - | - | - |
| 1777980615 | 16.67° C | 95% | 1013.9 hPa | 0 mm | - | - | - |
| 1777980015 | 16.67° C | 95% | 1013.8 hPa | 0 mm | - | - | - |
| 1777978215 | 16.11° C | 94% | 1013.4 hPa | 0 mm | - | - | - |
| 1777976715 | 16.67° C | 93% | 1013.4 hPa | 0 mm | - | - | - |
| 1777976116 | 16.67° C | 93% | 1013.3 hPa | 0 mm | - | - | - |
| 1777975515 | 16.67° C | 92% | 1013.4 hPa | 0 mm | - | - | - |
| 1777975216 | 16.67° C | 92% | 1013.1 hPa | 0 mm | - | - | - |
| 1777974916 | 16.67° C | 92% | 1013.1 hPa | 0 mm | - | - | - |
| 1777974313 | 17.22° C | 92% | 1013.1 hPa | 0 mm | - | - | - |
* Rain latest hour (hover to see other rain measurements)
** Current wind speed in m/s (hover to see current wind gust speed)